createdAt,value
2023-02-11T00:00:50.644Z,76.43
2023-02-11T00:01:50.265Z,76.54
2023-02-11T00:02:50.238Z,76.50
2023-02-11T00:03:50.299Z,76.43
2023-02-11T00:04:50.204Z,76.54
2023-02-11T00:05:50.523Z,76.54
2023-02-11T00:06:50.182Z,76.43
2023-02-11T00:07:50.195Z,76.43
2023-02-11T00:08:50.162Z,76.54
2023-02-11T00:09:50.158Z,76.95
2023-02-11T00:10:50.394Z,76.95
2023-02-11T00:11:50.133Z,76.95
2023-02-11T00:12:50.136Z,76.95
2023-02-11T00:13:50.150Z,76.75
2023-02-11T00:14:50.095Z,76.92
2023-02-11T00:15:50.342Z,76.40
2023-02-11T00:16:50.090Z,76.40
2023-02-11T00:17:50.096Z,76.54
2023-02-11T00:18:50.059Z,76.33
2023-02-11T00:19:50.043Z,76.29
2023-02-11T00:20:50.035Z,76.33
2023-02-11T00:21:50.028Z,76.40
2023-02-11T00:22:50.034Z,76.33
2023-02-11T00:23:50.005Z,76.23
2023-02-11T00:24:49.994Z,76.33
2023-02-11T00:25:50.364Z,76.43
2023-02-11T00:26:49.974Z,76.33
2023-02-11T00:27:49.988Z,76.71
2023-02-11T00:28:49.957Z,76.23
2023-02-11T00:29:49.956Z,76.50
2023-02-11T00:30:50.013Z,76.50
2023-02-11T00:31:50.073Z,76.33
2023-02-11T00:32:49.920Z,76.29
2023-02-11T00:33:49.904Z,76.33
2023-02-11T00:34:49.887Z,76.50
2023-02-11T00:35:50.254Z,76.50
2023-02-11T00:36:49.863Z,76.40
2023-02-11T00:37:49.855Z,76.85
2023-02-11T00:38:49.833Z,76.64
2023-02-11T00:39:49.833Z,76.54
2023-02-11T00:40:49.811Z,76.40
2023-02-11T00:41:49.803Z,76.43
2023-02-11T00:42:49.810Z,76.43
2023-02-11T00:43:49.802Z,76.50
2023-02-11T00:44:49.776Z,76.71
2023-02-11T00:45:50.205Z,76.40
2023-02-11T00:46:49.759Z,76.43
2023-02-11T00:47:49.741Z,76.40
2023-02-11T00:48:49.755Z,76.61
2023-02-11T00:49:49.721Z,76.61
2023-02-11T00:50:49.712Z,76.29
2023-02-11T00:51:49.693Z,76.19
2023-02-11T00:52:49.704Z,76.29
2023-02-11T00:53:49.672Z,76.12
2023-02-11T00:54:49.660Z,76.09
2023-02-11T00:55:49.929Z,76.29
2023-02-11T00:56:49.643Z,76.40
2023-02-11T00:57:49.650Z,76.29
2023-02-11T00:58:49.619Z,76.29
2023-02-11T00:59:49.606Z,76.36
2023-02-11T01:00:49.595Z,76.26
2023-02-11T01:01:49.785Z,76.29
2023-02-11T01:02:49.602Z,76.05
2023-02-11T01:03:49.564Z,76.40
2023-02-11T01:04:49.620Z,76.40
2023-02-11T01:05:49.850Z,76.09
2023-02-11T01:06:49.535Z,76.36
2023-02-11T01:07:49.543Z,76.40
2023-02-11T01:08:49.509Z,76.40
2023-02-11T01:09:49.509Z,76.05
2023-02-11T01:10:49.509Z,76.26
2023-02-11T01:11:49.484Z,76.15
2023-02-11T01:12:49.487Z,76.36
2023-02-11T01:13:49.510Z,76.36
2023-02-11T01:14:49.470Z,76.78
2023-02-11T01:15:49.885Z,77.19
2023-02-11T01:16:49.429Z,77.12
2023-02-11T01:17:49.440Z,76.98
2023-02-11T01:18:49.450Z,77.71
2023-02-11T01:19:49.401Z,77.71
2023-02-11T01:20:49.395Z,77.85
2023-02-11T01:21:49.374Z,78.06
2023-02-11T01:22:49.391Z,78.37
2023-02-11T01:23:49.359Z,78.12
2023-02-11T01:24:49.348Z,77.92
2023-02-11T01:25:49.787Z,77.61
2023-02-11T01:26:49.328Z,77.29
2023-02-11T01:27:49.334Z,77.92
2023-02-11T01:28:49.306Z,77.19
2023-02-11T01:29:49.295Z,77.29
2023-02-11T01:30:49.330Z,77.40
2023-02-11T01:31:49.346Z,77.19
2023-02-11T01:32:49.285Z,77.33
2023-02-11T01:33:49.263Z,77.33
2023-02-11T01:34:49.269Z,77.75
2023-02-11T01:35:49.712Z,78.06
2023-02-11T01:36:49.216Z,77.64
2023-02-11T01:37:49.216Z,77.75
2023-02-11T01:38:49.224Z,77.85
2023-02-11T01:39:49.180Z,77.85
2023-02-11T01:40:49.190Z,77.33
2023-02-11T01:41:49.161Z,77.75
2023-02-11T01:42:51.029Z,77.71
2023-02-11T01:43:49.152Z,77.44
2023-02-11T01:44:49.123Z,77.75
2023-02-11T01:45:49.538Z,77.71
2023-02-11T01:46:49.227Z,77.54
2023-02-11T01:47:49.132Z,77.40
2023-02-11T01:48:49.151Z,77.50
2023-02-11T01:49:49.090Z,77.33
2023-02-11T01:50:49.061Z,77.61
2023-02-11T01:51:49.053Z,77.81
2023-02-11T01:52:49.066Z,77.61
2023-02-11T01:53:49.033Z,78.02
2023-02-11T01:54:49.032Z,78.12
2023-02-11T01:55:49.321Z,78.12
2023-02-11T01:56:49.000Z,77.81
2023-02-11T01:57:48.997Z,77.81
2023-02-11T01:58:49.058Z,77.81
2023-02-11T01:59:48.971Z,78.02
2023-02-11T02:00:48.955Z,77.71
2023-02-11T02:01:48.965Z,77.61
2023-02-11T02:02:48.954Z,78.12
2023-02-11T02:03:48.979Z,77.98
2023-02-11T02:04:48.912Z,77.57
2023-02-11T02:05:49.257Z,77.67
2023-02-11T02:06:48.885Z,78.02
2023-02-11T02:07:48.892Z,77.78
2023-02-11T02:08:48.870Z,77.92
2023-02-11T02:09:48.858Z,77.57
2023-02-11T02:10:48.851Z,77.57
2023-02-11T02:11:48.838Z,77.78
2023-02-11T02:12:48.859Z,77.57
2023-02-11T02:13:48.816Z,77.98
2023-02-11T02:14:48.799Z,77.57
2023-02-11T02:15:49.309Z,77.57
2023-02-11T02:16:48.779Z,77.64
2023-02-11T02:17:48.786Z,77.67
2023-02-11T02:18:48.804Z,77.74
2023-02-11T02:19:48.748Z,77.84
2023-02-11T02:20:48.742Z,77.88
2023-02-11T02:21:48.743Z,77.78
2023-02-11T02:22:48.741Z,77.64
2023-02-11T02:23:48.703Z,78.05
2023-02-11T02:24:48.689Z,77.88
2023-02-11T02:25:49.051Z,77.84
2023-02-11T02:26:48.664Z,77.95
2023-02-11T02:27:48.686Z,77.95
2023-02-11T02:28:48.655Z,77.95
2023-02-11T02:29:48.636Z,78.16
2023-02-11T02:30:48.708Z,78.26
2023-02-11T02:31:48.663Z,78.26
2023-02-11T02:32:48.629Z,78.05
2023-02-11T02:33:48.603Z,77.84
2023-02-11T02:34:48.619Z,78.26
2023-02-11T02:35:48.962Z,78.26
2023-02-11T02:36:48.557Z,77.84
2023-02-11T02:37:48.565Z,78.26
2023-02-11T02:38:48.537Z,78.26
2023-02-11T02:39:48.538Z,78.05
2023-02-11T02:40:48.512Z,78.26
2023-02-11T02:41:48.503Z,77.95
2023-02-11T02:42:48.492Z,77.95
2023-02-11T02:43:48.512Z,77.74
2023-02-11T02:44:48.469Z,77.53
2023-02-11T02:45:48.944Z,77.74
2023-02-11T02:46:48.519Z,78.26
2023-02-11T02:47:48.464Z,78.05
2023-02-11T02:48:48.445Z,78.02
2023-02-11T02:49:48.427Z,77.95
2023-02-11T02:50:48.413Z,78.26
2023-02-11T02:51:48.397Z,78.43
2023-02-11T02:52:48.388Z,78.47
2023-02-11T02:53:48.425Z,78.05
2023-02-11T02:54:48.375Z,78.16
2023-02-11T02:55:48.595Z,78.33
2023-02-11T02:56:48.362Z,78.47
2023-02-11T02:57:48.331Z,78.33
2023-02-11T02:58:48.335Z,78.22
2023-02-11T02:59:48.310Z,78.33
2023-02-11T03:00:48.360Z,78.74
2023-02-11T03:01:48.308Z,78.53
2023-02-11T03:02:48.280Z,78.53
2023-02-11T03:03:48.391Z,78.74
2023-02-11T03:04:48.257Z,78.64
2023-02-11T03:05:48.602Z,79.16
2023-02-11T03:06:48.237Z,79.05
2023-02-11T03:07:48.229Z,78.95
2023-02-11T03:08:48.235Z,79.16
2023-02-11T03:09:48.225Z,79.16
2023-02-11T03:10:48.199Z,79.16
2023-02-11T03:11:48.184Z,79.16
2023-02-11T03:12:48.200Z,79.16
2023-02-11T03:13:48.179Z,79.26
2023-02-11T03:14:48.149Z,79.36
2023-02-11T03:15:48.506Z,79.36
2023-02-11T03:16:48.127Z,78.85
2023-02-11T03:17:48.117Z,79.02
2023-02-11T03:18:48.116Z,78.74
2023-02-11T03:19:48.094Z,79.57
2023-02-11T03:20:48.085Z,79.57
2023-02-11T03:21:48.073Z,79.53
2023-02-11T03:22:48.064Z,79.63
2023-02-11T03:23:48.071Z,79.67
2023-02-11T03:24:48.040Z,79.67
2023-02-11T03:25:48.343Z,79.77
2023-02-11T03:26:48.019Z,79.53
2023-02-11T03:27:48.007Z,79.36
2023-02-11T03:28:48.020Z,79.53
2023-02-11T03:29:48.021Z,79.33
2023-02-11T03:30:48.040Z,79.36
2023-02-11T03:31:48.063Z,79.26
2023-02-11T03:32:47.959Z,79.36
2023-02-11T03:33:47.967Z,79.36
2023-02-11T03:34:47.974Z,79.36
2023-02-11T03:35:48.329Z,79.98
2023-02-11T03:36:47.909Z,79.57
2023-02-11T03:37:47.899Z,79.88
2023-02-11T03:38:47.891Z,79.74
2023-02-11T03:39:47.921Z,79.74
2023-02-11T03:40:47.876Z,79.84
2023-02-11T03:41:47.874Z,79.74
2023-02-11T03:42:47.848Z,79.94
2023-02-11T03:43:47.864Z,79.84
2023-02-11T03:44:47.827Z,79.74
2023-02-11T03:45:48.063Z,79.74
2023-02-11T03:46:47.809Z,79.84
2023-02-11T03:47:47.795Z,79.53
2023-02-11T03:48:47.826Z,79.74
2023-02-11T03:49:47.776Z,79.94
2023-02-11T03:50:47.759Z,80.05
2023-02-11T03:51:47.754Z,80.05
2023-02-11T03:52:47.783Z,79.94
2023-02-11T03:53:47.745Z,80.05
2023-02-11T03:54:47.719Z,80.15
2023-02-11T03:55:48.220Z,79.74
2023-02-11T03:56:47.703Z,79.74
2023-02-11T03:57:47.701Z,79.84
2023-02-11T03:58:47.696Z,79.74
2023-02-11T03:59:47.661Z,79.63
2023-02-11T04:00:47.749Z,79.63
2023-02-11T04:01:47.641Z,80.26
2023-02-11T04:02:47.657Z,80.15
2023-02-11T04:03:47.639Z,80.15
2023-02-11T04:04:47.609Z,80.15
2023-02-11T04:05:47.679Z,80.36
2023-02-11T04:06:47.590Z,80.32
2023-02-11T04:07:47.576Z,80.36
2023-02-11T04:08:47.585Z,80.26
2023-02-11T04:09:47.559Z,80.26
2023-02-11T04:10:47.549Z,80.22
2023-02-11T04:11:47.530Z,80.43
2023-02-11T04:12:47.527Z,80.26
2023-02-11T04:13:47.655Z,80.46
2023-02-11T04:14:47.519Z,80.57
2023-02-11T04:15:48.950Z,80.67
2023-02-11T04:16:47.526Z,81.49
2023-02-11T04:17:47.468Z,81.19
2023-02-11T04:18:47.517Z,81.19
2023-02-11T04:19:47.448Z,81.09
2023-02-11T04:20:47.446Z,81.19
2023-02-11T04:21:47.433Z,81.19
2023-02-11T04:22:47.414Z,81.25
2023-02-11T04:23:47.419Z,81.29
2023-02-11T04:24:47.404Z,81.05
2023-02-11T04:25:47.433Z,81.15
2023-02-11T04:26:47.377Z,81.25
2023-02-11T04:27:47.373Z,81.25
2023-02-11T04:28:47.388Z,81.25
2023-02-11T04:29:47.357Z,81.46
2023-02-11T04:30:47.344Z,81.46
2023-02-11T04:31:47.331Z,81.35
2023-02-11T04:32:47.310Z,81.15
2023-02-11T04:33:47.312Z,81.46
2023-02-11T04:34:47.289Z,81.35
2023-02-11T04:35:47.279Z,81.25
2023-02-11T04:36:47.266Z,81.98
2023-02-11T04:37:47.254Z,81.77
2023-02-11T04:38:47.312Z,81.56
2023-02-11T04:39:47.231Z,81.67
2023-02-11T04:40:47.222Z,81.77
2023-02-11T04:41:47.213Z,81.67
2023-02-11T04:42:47.200Z,81.77
2023-02-11T04:43:47.224Z,81.81
2023-02-11T04:44:47.187Z,82.08
2023-02-11T04:45:47.245Z,81.98
2023-02-11T04:46:47.164Z,82.39
2023-02-11T04:47:47.160Z,82.50
2023-02-11T04:48:47.160Z,82.18
2023-02-11T04:49:47.144Z,82.60
2023-02-11T04:50:47.126Z,82.80
2023-02-11T04:51:49.419Z,83.01
2023-02-11T04:52:47.101Z,82.95
2023-02-11T04:53:47.118Z,83.01
2023-02-11T04:54:47.079Z,82.90
2023-02-11T04:55:47.068Z,83.11
2023-02-11T04:56:47.054Z,83.11
2023-02-11T04:57:47.051Z,83.42
2023-02-11T04:58:47.047Z,83.42
2023-02-11T04:59:47.027Z,83.42
2023-02-11T05:00:47.010Z,83.42
2023-02-11T05:01:47.032Z,83.53
2023-02-11T05:02:46.994Z,83.42
2023-02-11T05:03:47.040Z,83.42
2023-02-11T05:04:46.969Z,83.42
2023-02-11T05:05:46.961Z,83.56
2023-02-11T05:06:46.949Z,83.32
2023-02-11T05:07:46.937Z,83.42
2023-02-11T05:08:46.946Z,83.53
2023-02-11T05:09:46.913Z,83.42
2023-02-11T05:10:46.904Z,83.36
2023-02-11T05:11:46.893Z,83.42
2023-02-11T05:12:46.884Z,83.42
2023-02-11T05:13:46.980Z,83.53
2023-02-11T05:14:46.966Z,83.32
2023-02-11T05:15:46.856Z,83.42
2023-02-11T05:16:46.930Z,83.32
2023-02-11T05:17:46.859Z,83.56
2023-02-11T05:18:46.830Z,83.94
2023-02-11T05:19:46.815Z,83.94
2023-02-11T05:20:46.794Z,84.36
2023-02-11T05:22:01.467Z,84.56
2023-02-11T05:22:47.766Z,84.36
2023-02-11T05:23:46.801Z,83.94
2023-02-11T05:24:46.753Z,83.84
2023-02-11T05:25:46.739Z,84.60
2023-02-11T05:26:46.729Z,83.94
2023-02-11T05:27:46.718Z,84.45
2023-02-11T05:28:46.729Z,84.56
2023-02-11T05:29:46.699Z,84.25
2023-02-11T05:30:46.741Z,84.45
2023-02-11T05:31:46.700Z,84.87
2023-02-11T05:32:46.660Z,84.87
2023-02-11T05:33:46.693Z,84.87
2023-02-11T05:34:46.644Z,85.02
2023-02-11T05:35:46.634Z,84.87
2023-02-11T05:36:46.619Z,84.77
2023-02-11T05:37:46.613Z,85.32
2023-02-11T05:38:46.638Z,85.18
2023-02-11T05:39:46.591Z,85.11
2023-02-11T05:40:46.581Z,85.74
2023-02-11T05:41:46.575Z,85.53
2023-02-11T05:42:46.553Z,85.28
2023-02-11T05:43:46.569Z,85.80
2023-02-11T05:44:48.025Z,85.70
2023-02-11T05:45:46.531Z,85.60
2023-02-11T05:46:46.606Z,85.60
2023-02-11T05:47:46.506Z,85.70
2023-02-11T05:48:46.515Z,86.11
2023-02-11T05:49:46.514Z,85.49
2023-02-11T05:50:46.472Z,85.91
2023-02-11T05:51:46.465Z,86.11
2023-02-11T05:52:46.452Z,85.91
2023-02-11T05:53:46.458Z,86.11
2023-02-11T05:54:46.423Z,86.25
2023-02-11T05:55:46.430Z,86.94
2023-02-11T05:56:46.410Z,86.52
2023-02-11T05:57:46.397Z,86.36
2023-02-11T05:58:46.392Z,86.21
2023-02-11T05:59:46.372Z,86.83
2023-02-11T06:00:46.378Z,86.73
2023-02-11T06:01:46.349Z,86.46
2023-02-11T06:02:46.404Z,86.73
2023-02-11T06:03:46.418Z,86.83
2023-02-11T06:04:46.319Z,86.73
2023-02-11T06:05:46.323Z,86.73
2023-02-11T06:06:46.295Z,87.35
2023-02-11T06:07:46.294Z,87.15
2023-02-11T06:08:46.292Z,87.25
2023-02-11T06:09:46.265Z,87.46
2023-02-11T06:10:46.251Z,87.66
2023-02-11T06:11:46.246Z,87.66
2023-02-11T06:12:46.235Z,87.15
2023-02-11T06:13:46.263Z,87.66
2023-02-11T06:14:46.207Z,88.28
2023-02-11T06:15:46.230Z,88.49
2023-02-11T06:16:46.207Z,87.76
2023-02-11T06:17:46.177Z,88.07
2023-02-11T06:18:46.170Z,87.97
2023-02-11T06:19:46.176Z,87.93
2023-02-11T06:20:46.154Z,87.87
2023-02-11T06:21:46.166Z,87.97
2023-02-11T06:22:46.122Z,87.56
2023-02-11T06:23:46.115Z,88.39
2023-02-11T06:24:59.969Z,88.04
2023-02-11T06:25:47.093Z,88.07
2023-02-11T06:26:46.082Z,88.49
2023-02-11T06:27:46.069Z,88.24
2023-02-11T06:28:46.208Z,88.14
2023-02-11T06:29:46.065Z,88.04
2023-02-11T06:30:46.104Z,88.65
2023-02-11T06:31:46.226Z,87.93
2023-02-11T06:32:46.398Z,88.86
2023-02-11T06:33:46.016Z,88.65
2023-02-11T06:34:46.005Z,88.96
2023-02-11T06:35:45.987Z,89.07
2023-02-11T06:36:45.976Z,89.11
2023-02-11T06:37:45.989Z,88.96
2023-02-11T06:38:45.954Z,89.28
2023-02-11T06:39:45.953Z,89.89
2023-02-11T06:40:45.930Z,89.59
2023-02-11T06:41:45.919Z,89.69
2023-02-11T06:42:45.916Z,89.07
2023-02-11T06:43:45.899Z,89.59
2023-02-11T06:44:45.903Z,88.71
2023-02-11T06:45:45.879Z,89.07
2023-02-11T06:46:45.947Z,89.07
2023-02-11T06:47:45.859Z,89.48
2023-02-11T06:48:45.844Z,89.69
2023-02-11T06:49:45.848Z,89.38
2023-02-11T06:50:45.826Z,90.00
2023-02-11T06:51:45.820Z,89.79
2023-02-11T06:52:45.800Z,89.89
2023-02-11T06:53:45.812Z,89.59
2023-02-11T06:54:45.797Z,89.65
2023-02-11T06:55:45.782Z,89.69
2023-02-11T06:56:45.772Z,89.69
2023-02-11T06:57:45.751Z,89.79
2023-02-11T06:58:45.739Z,89.59
2023-02-11T06:59:45.730Z,89.89
2023-02-11T07:00:45.721Z,89.89
2023-02-11T07:01:45.782Z,90.10
2023-02-11T07:02:45.773Z,89.65
2023-02-11T07:03:45.692Z,89.95
2023-02-11T07:04:45.688Z,90.31
2023-02-11T07:05:45.663Z,90.10
2023-02-11T07:06:45.650Z,90.00
2023-02-11T07:07:45.641Z,90.00
2023-02-11T07:08:45.630Z,90.41
2023-02-11T07:09:45.650Z,90.10
2023-02-11T07:10:45.611Z,90.06
2023-02-11T07:11:45.599Z,90.10
2023-02-11T07:12:45.594Z,90.10
2023-02-11T07:13:45.575Z,90.26
2023-02-11T07:14:45.576Z,90.10
2023-02-11T07:15:45.571Z,90.52
2023-02-11T07:16:45.549Z,90.06
2023-02-11T07:17:45.534Z,90.00
2023-02-11T07:18:45.523Z,90.10
2023-02-11T07:19:52.640Z,90.10
2023-02-11T07:20:45.505Z,90.20
2023-02-11T07:21:45.492Z,90.31
2023-02-11T07:22:45.478Z,90.41
2023-02-11T07:23:45.469Z,90.10
2023-02-11T07:24:45.484Z,89.75
2023-02-11T07:25:45.474Z,90.20
2023-02-11T07:26:45.434Z,90.26
2023-02-11T07:27:45.428Z,90.06
2023-02-11T07:28:45.413Z,89.95
2023-02-11T07:29:45.421Z,89.65
2023-02-11T07:30:45.423Z,89.54
2023-02-11T07:31:45.482Z,89.54
2023-02-11T07:32:45.375Z,89.75
2023-02-11T07:33:45.359Z,90.10
2023-02-11T07:34:45.561Z,89.44
2023-02-11T07:35:45.340Z,89.54
2023-02-11T07:36:45.357Z,89.65
2023-02-11T07:37:45.316Z,90.10
2023-02-11T07:38:45.305Z,90.06
2023-02-11T07:39:45.304Z,89.48
2023-02-11T07:40:45.281Z,89.44
2023-02-11T07:41:45.298Z,89.95
2023-02-11T07:42:45.277Z,90.16
2023-02-11T07:43:45.251Z,89.65
2023-02-11T07:44:45.252Z,89.86
2023-02-11T07:45:45.227Z,89.65
2023-02-11T07:46:45.323Z,89.44
2023-02-11T07:47:45.244Z,89.54
2023-02-11T07:48:45.202Z,89.13
2023-02-11T07:49:45.184Z,89.54
2023-02-11T07:50:45.174Z,89.54
2023-02-11T07:51:45.166Z,89.44
2023-02-11T07:52:45.393Z,89.44
2023-02-11T07:53:45.145Z,89.23
2023-02-11T07:54:45.382Z,89.13
2023-02-11T07:55:45.121Z,89.54
2023-02-11T07:56:45.130Z,88.89
2023-02-11T07:57:45.114Z,89.54
2023-02-11T07:58:45.091Z,88.89
2023-02-11T07:59:45.085Z,88.89
2023-02-11T08:00:45.126Z,89.29
2023-02-11T08:01:45.071Z,88.78
2023-02-11T08:02:45.056Z,89.34
2023-02-11T08:03:45.038Z,89.09
2023-02-11T08:04:45.050Z,88.68
2023-02-11T08:05:45.010Z,88.57
2023-02-11T08:06:44.999Z,88.89
2023-02-11T08:07:44.991Z,89.71
2023-02-11T08:08:44.984Z,88.78
2023-02-11T08:09:44.976Z,89.61
2023-02-11T08:10:44.990Z,89.71
2023-02-11T08:11:44.984Z,89.61
2023-02-11T08:12:44.933Z,88.89
2023-02-11T08:13:44.955Z,89.61
2023-02-11T08:14:44.919Z,89.40
2023-02-11T08:15:44.920Z,89.56
2023-02-11T08:16:44.909Z,89.61
2023-02-11T08:17:44.876Z,89.46
2023-02-11T08:18:44.868Z,89.46
2023-02-11T08:19:44.862Z,89.56
2023-02-11T08:20:44.868Z,89.67
2023-02-11T08:21:44.844Z,89.67
2023-02-11T08:22:44.832Z,89.05
2023-02-11T08:23:44.813Z,89.56
2023-02-11T08:24:44.799Z,89.36
2023-02-11T08:25:44.812Z,89.56
2023-02-11T08:26:44.780Z,89.52
2023-02-11T08:27:44.780Z,89.46
2023-02-11T08:28:44.805Z,89.15
2023-02-11T08:29:44.765Z,89.67
2023-02-11T08:30:44.780Z,89.05
2023-02-11T08:31:44.860Z,89.01
2023-02-11T08:32:44.722Z,88.64
2023-02-11T08:33:44.699Z,89.25
2023-02-11T08:34:44.714Z,89.22
2023-02-11T08:35:44.696Z,89.11
2023-02-11T08:36:44.670Z,89.05
2023-02-11T08:37:44.654Z,88.84
2023-02-11T08:38:44.656Z,89.11
2023-02-11T08:39:44.633Z,89.22
2023-02-11T08:40:44.635Z,89.62
2023-02-11T08:41:44.627Z,89.15
2023-02-11T08:42:44.601Z,89.42
2023-02-11T08:43:44.599Z,90.04
2023-02-11T08:44:44.581Z,89.83
2023-02-11T08:45:44.616Z,89.94
2023-02-11T08:46:44.559Z,90.25
2023-02-11T08:48:38.130Z,90.35
2023-02-11T08:49:38.112Z,90.25
2023-02-11T08:50:38.106Z,90.49
2023-02-11T08:51:38.097Z,90.97
2023-02-11T08:52:38.118Z,90.66
2023-02-11T08:53:38.075Z,90.55
2023-02-11T08:54:38.064Z,90.70
2023-02-11T08:55:38.061Z,90.66
2023-02-11T08:56:38.051Z,90.66
2023-02-11T08:57:38.045Z,90.86
2023-02-11T08:58:38.037Z,90.97
2023-02-11T08:59:38.006Z,90.97
2023-02-11T09:00:38.017Z,90.97
2023-02-11T09:01:38.078Z,91.01
2023-02-11T09:02:38.063Z,90.97
2023-02-11T09:03:37.965Z,91.17
2023-02-11T09:04:37.960Z,91.07
2023-02-11T09:05:37.961Z,90.76
2023-02-11T09:06:37.935Z,90.76
2023-02-11T09:07:37.920Z,90.86
2023-02-11T09:08:37.931Z,90.86
2023-02-11T09:09:37.906Z,90.86
2023-02-11T09:10:37.891Z,90.76
2023-02-11T09:11:37.878Z,90.66
2023-02-11T09:12:37.870Z,90.66
2023-02-11T09:13:37.876Z,90.97
2023-02-11T09:14:37.862Z,91.07
2023-02-11T09:15:37.846Z,91.38
2023-02-11T09:16:37.852Z,91.48
2023-02-11T09:17:37.843Z,91.17
2023-02-11T09:18:37.804Z,91.28
2023-02-11T09:19:37.795Z,91.48
2023-02-11T09:20:37.793Z,91.28
2023-02-11T09:21:37.772Z,91.38
2023-02-11T09:22:37.762Z,91.17
2023-02-11T09:23:37.762Z,91.28
2023-02-11T09:24:37.739Z,91.38
2023-02-11T09:25:37.776Z,91.58
2023-02-11T09:26:37.728Z,91.38
2023-02-11T09:27:37.713Z,91.07
2023-02-11T09:28:37.761Z,91.28
2023-02-11T09:29:37.685Z,91.34
2023-02-11T09:30:37.821Z,91.03
2023-02-11T09:31:37.863Z,90.82
2023-02-11T09:32:37.656Z,91.03
2023-02-11T09:33:37.659Z,90.92
2023-02-11T09:34:37.632Z,91.24
2023-02-11T09:35:37.622Z,90.61
2023-02-11T09:36:37.667Z,91.03
2023-02-11T09:37:37.670Z,90.61
2023-02-11T09:38:37.590Z,90.72
2023-02-11T09:39:37.582Z,90.72
2023-02-11T09:40:37.572Z,90.92
2023-02-11T09:41:37.600Z,90.82
2023-02-11T09:42:37.547Z,90.72
2023-02-11T09:43:37.535Z,90.61
2023-02-11T09:44:37.531Z,90.92
2023-02-11T09:45:37.520Z,90.82
2023-02-11T09:46:37.518Z,90.82
2023-02-11T09:47:37.521Z,90.97
2023-02-11T09:48:37.483Z,91.24
2023-02-11T09:49:37.489Z,91.24
2023-02-11T09:50:37.470Z,90.82
2023-02-11T09:51:37.469Z,90.72
2023-02-11T09:52:37.453Z,90.51
2023-02-11T09:53:37.431Z,90.92
2023-02-11T09:54:37.426Z,90.78
2023-02-11T09:55:37.415Z,90.72
2023-02-11T09:56:37.428Z,91.03
2023-02-11T09:57:37.390Z,91.03
2023-02-11T09:58:37.403Z,90.99
2023-02-11T09:59:37.368Z,90.78
2023-02-11T10:00:37.361Z,90.67
2023-02-11T10:01:37.427Z,90.41
2023-02-11T10:02:37.338Z,90.99
2023-02-11T10:03:37.349Z,90.99
2023-02-11T10:04:37.399Z,90.99
2023-02-11T10:05:37.333Z,91.09
2023-02-11T10:06:37.296Z,90.88
2023-02-11T10:07:37.284Z,90.88
2023-02-11T10:08:37.294Z,90.78
2023-02-11T10:09:37.262Z,90.67
2023-02-11T10:10:37.252Z,90.78
2023-02-11T10:11:37.242Z,90.67
2023-02-11T10:12:37.233Z,90.64
2023-02-11T10:13:37.232Z,90.99
2023-02-11T10:14:37.211Z,90.94
2023-02-11T10:15:37.229Z,90.99
2023-02-11T10:16:37.193Z,91.25
2023-02-11T10:17:37.179Z,90.99
2023-02-11T10:18:37.192Z,91.19
2023-02-11T10:19:37.157Z,90.94
2023-02-11T10:20:37.157Z,90.67
2023-02-11T10:21:37.156Z,91.19
2023-02-11T10:22:37.129Z,91.25
2023-02-11T10:23:37.134Z,91.40
2023-02-11T10:24:37.104Z,91.30
2023-02-11T10:25:37.103Z,91.66
2023-02-11T10:26:37.163Z,91.66
2023-02-11T10:27:37.071Z,91.36
2023-02-11T10:28:37.119Z,91.81
2023-02-11T10:29:37.052Z,92.08
2023-02-11T10:30:37.073Z,92.08
2023-02-11T10:31:37.210Z,92.12
2023-02-11T10:32:37.026Z,92.43
2023-02-11T10:33:37.009Z,91.87
2023-02-11T10:34:37.000Z,92.18
2023-02-11T10:35:37.009Z,92.29
2023-02-11T10:36:36.989Z,92.12
2023-02-11T10:37:36.983Z,92.63
2023-02-11T10:38:36.962Z,92.33
2023-02-11T10:39:36.950Z,92.69
2023-02-11T10:40:36.934Z,92.59
2023-02-11T10:41:36.969Z,92.22
2023-02-11T10:42:36.918Z,92.43
2023-02-11T10:43:36.909Z,92.49
2023-02-11T10:44:36.892Z,92.84
2023-02-11T10:45:36.918Z,92.94
2023-02-11T10:46:36.960Z,92.69
2023-02-11T10:47:36.859Z,92.90
2023-02-11T10:48:36.857Z,93.01
2023-02-11T10:49:36.857Z,93.01
2023-02-11T10:50:36.832Z,92.90
2023-02-11T10:51:36.822Z,93.46
2023-02-11T10:52:36.806Z,93.31
2023-02-11T10:53:36.816Z,93.31
2023-02-11T10:54:36.806Z,93.31
2023-02-11T10:55:36.772Z,93.31
2023-02-11T10:56:36.782Z,93.21
2023-02-11T10:57:36.751Z,93.05
2023-02-11T10:58:36.741Z,93.11
2023-02-11T10:59:36.734Z,93.11
2023-02-11T11:00:36.764Z,94.03
2023-02-11T11:01:36.726Z,94.08
2023-02-11T11:02:36.701Z,93.83
2023-02-11T11:03:36.688Z,93.73
2023-02-11T11:04:36.727Z,93.62
2023-02-11T11:05:36.669Z,93.93
2023-02-11T11:06:36.685Z,93.83
2023-02-11T11:07:36.644Z,93.62
2023-02-11T11:08:36.635Z,93.62
2023-02-11T11:09:36.640Z,93.83
2023-02-11T11:10:36.615Z,93.73
2023-02-11T11:11:36.621Z,93.93
2023-02-11T11:12:36.593Z,93.73
2023-02-11T11:13:36.580Z,93.83
2023-02-11T11:14:36.594Z,94.03
2023-02-11T11:15:36.591Z,94.03
2023-02-11T11:16:36.579Z,94.24
2023-02-11T11:17:36.539Z,94.34
2023-02-11T11:18:36.529Z,94.55
2023-02-11T11:19:36.522Z,94.34
2023-02-11T11:20:36.509Z,94.55
2023-02-11T11:21:36.516Z,94.55
2023-02-11T11:22:36.485Z,94.55
2023-02-11T11:23:36.541Z,94.45
2023-02-11T11:24:36.489Z,94.45
2023-02-11T11:25:36.473Z,94.85
2023-02-11T11:26:36.462Z,94.96
2023-02-11T11:27:36.438Z,94.65
2023-02-11T11:28:36.484Z,94.85
2023-02-11T11:29:36.414Z,94.65
2023-02-11T11:30:36.444Z,94.65
2023-02-11T11:31:36.538Z,95.06
2023-02-11T11:32:36.382Z,95.06
2023-02-11T11:33:36.367Z,94.65
2023-02-11T11:34:36.361Z,94.96
2023-02-11T11:35:36.351Z,95.27
2023-02-11T11:36:36.394Z,95.48
2023-02-11T11:37:36.362Z,95.27
2023-02-11T11:38:36.313Z,95.06
2023-02-11T11:39:36.302Z,95.27
2023-02-11T11:40:36.310Z,94.96
2023-02-11T11:41:36.319Z,94.85
2023-02-11T11:42:36.271Z,94.85
2023-02-11T11:43:36.307Z,94.85
2023-02-11T11:44:36.260Z,94.96
2023-02-11T11:45:36.249Z,95.12
2023-02-11T11:46:36.326Z,95.06
2023-02-11T11:47:36.213Z,94.85
2023-02-11T11:48:36.210Z,95.12
2023-02-11T11:49:36.193Z,94.71
2023-02-11T11:50:36.180Z,95.17
2023-02-11T11:51:36.200Z,94.92
2023-02-11T11:52:36.174Z,95.12
2023-02-11T11:53:36.149Z,94.81
2023-02-11T11:54:36.137Z,95.12
2023-02-11T11:55:36.132Z,95.17
2023-02-11T11:56:36.130Z,94.85
2023-02-11T11:57:36.123Z,94.92
2023-02-11T11:58:36.100Z,95.23
2023-02-11T11:59:36.182Z,94.81
2023-02-11T12:00:36.087Z,94.92
2023-02-11T12:01:36.134Z,94.81
2023-02-11T12:02:36.056Z,95.17
2023-02-11T12:03:36.055Z,94.92
2023-02-11T12:04:36.056Z,95.23
2023-02-11T12:05:36.020Z,94.60
2023-02-11T12:06:36.064Z,95.23
2023-02-11T12:07:35.999Z,94.92
2023-02-11T12:08:35.998Z,94.60
2023-02-11T12:09:35.983Z,94.92
2023-02-11T12:10:35.972Z,95.02
2023-02-11T12:11:36.008Z,94.92
2023-02-11T12:12:35.945Z,94.81
2023-02-11T12:13:36.009Z,94.60
2023-02-11T12:14:35.923Z,94.71
2023-02-11T12:15:35.926Z,94.92
2023-02-11T12:16:35.986Z,94.92
2023-02-11T12:17:35.900Z,94.81
2023-02-11T12:18:35.885Z,94.81
2023-02-11T12:19:35.886Z,94.71
2023-02-11T12:20:35.866Z,94.40
2023-02-11T12:21:35.879Z,94.60
2023-02-11T12:22:35.842Z,94.60
2023-02-11T12:23:35.846Z,94.56
2023-02-11T12:24:35.821Z,94.71
2023-02-11T12:25:35.818Z,94.71
2023-02-11T12:26:35.814Z,94.87
2023-02-11T12:27:35.786Z,94.81
2023-02-11T12:28:35.843Z,94.81
2023-02-11T12:29:35.785Z,95.02
2023-02-11T12:30:35.823Z,94.92
2023-02-11T12:31:35.808Z,95.02
2023-02-11T12:32:35.735Z,94.77
2023-02-11T12:33:35.730Z,95.12
2023-02-11T12:34:35.719Z,94.67
2023-02-11T12:35:35.704Z,94.98
2023-02-11T12:36:35.713Z,94.56
2023-02-11T12:37:35.681Z,95.08
2023-02-11T12:38:35.674Z,94.98
2023-02-11T12:39:35.679Z,94.98
2023-02-11T12:40:35.655Z,95.08
2023-02-11T12:41:35.661Z,94.46
2023-02-11T12:42:35.629Z,94.77
2023-02-11T12:43:35.628Z,94.87
2023-02-11T12:44:35.606Z,94.77
2023-02-11T12:45:35.641Z,94.87
2023-02-11T12:46:35.603Z,94.87
2023-02-11T12:47:35.595Z,94.87
2023-02-11T12:48:35.943Z,95.08
2023-02-11T12:49:35.555Z,94.98
2023-02-11T12:50:35.543Z,94.77
2023-02-11T12:51:35.546Z,94.87
2023-02-11T12:52:35.588Z,94.77
2023-02-11T12:53:35.512Z,95.18